Time;durP1;ratioP1;P1;durP2;ratioP2;P2;SDS_P1;SDS_P2;PMS_P1;PMS_P2;Temp;Humidity;BMP_temperature;BMP_pressure;BME280_temperature;BME280_humidity;BME280_pressure;Samples;Min_cycle;Max_cycle;Signal;HPM_P1;HPM_P2
2023/07/01 00:01:43;;;;;;;10.30;6.88;;;23.20;59.30;;;;;;6187494;23;20406;-71
2023/07/01 00:04:14;;;;;;;8.23;6.38;;;23.20;59.40;;;;;;6187755;23;20008;-71
2023/07/01 00:06:43;;;;;;;10.93;6.43;;;23.20;59.40;;;;;;6161468;23;20004;-71
2023/07/01 00:09:14;;;;;;;8.40;6.43;;;23.20;59.50;;;;;;6160705;23;20001;-72
2023/07/01 00:11:40;;;;;;;7.88;6.10;;;23.20;59.50;;;;;;6160872;23;20004;-71
2023/07/01 00:14:09;;;;;;;11.07;7.22;;;23.30;59.50;;;;;;6187073;23;19997;-71
2023/07/01 00:16:34;;;;;;;12.27;7.00;;;23.30;59.50;;;;;;6187643;23;19997;-71
2023/07/01 00:19:00;;;;;;;12.05;6.55;;;23.30;59.50;;;;;;6188408;23;19989;-71
2023/07/01 00:21:26;;;;;;;7.93;6.68;;;23.30;59.50;;;;;;6161193;23;20140;-71
2023/07/01 00:23:57;;;;;;;7.95;6.18;;;23.30;59.40;;;;;;6186807;23;20318;-71
2023/07/01 00:26:25;;;;;;;7.30;6.07;;;23.30;59.40;;;;;;6160981;23;20473;-71
2023/07/01 00:28:55;;;;;;;9.98;6.85;;;23.30;59.40;;;;;;6161040;23;19997;-71
2023/07/01 00:31:21;;;;;;;9.80;6.13;;;23.30;59.50;;;;;;6188181;23;19997;-71
2023/07/01 00:33:47;;;;;;;7.90;6.43;;;23.30;59.50;;;;;;6186959;23;20011;-71
2023/07/01 00:36:13;;;;;;;9.27;6.55;;;23.30;59.60;;;;;;6160682;23;20490;-71
2023/07/01 00:38:38;;;;;;;10.10;6.03;;;23.30;59.40;;;;;;6187863;23;20051;-72
2023/07/01 00:41:04;;;;;;;8.38;6.40;;;23.30;59.40;;;;;;6188171;23;20088;-72
2023/07/01 00:43:30;;;;;;;10.98;6.55;;;23.20;59.40;;;;;;6187014;23;19997;-72
2023/07/01 00:45:55;;;;;;;10.45;6.68;;;23.30;59.40;;;;;;6161283;23;20052;-72
2023/07/01 00:48:28;;;;;;;9.07;6.30;;;23.30;59.20;;;;;;6160780;23;20024;-71
2023/07/01 00:50:55;;;;;;;16.93;6.20;;;23.20;59.10;;;;;;6187223;23;19989;-71
2023/07/01 00:53:21;;;;;;;9.65;6.45;;;23.30;59.10;;;;;;6160620;23;20312;-72
2023/07/01 00:55:47;;;;;;;7.32;5.88;;;23.30;59.20;;;;;;6187683;23;20008;-71
2023/07/01 00:58:19;;;;;;;8.38;6.75;;;23.30;59.10;;;;;;6187003;23;19997;-71
2023/07/01 01:00:47;;;;;;;9.15;6.15;;;23.30;59.10;;;;;;6188011;23;19993;-71
2023/07/01 01:03:26;;;;;;;9.50;6.55;;;23.30;59.10;;;;;;6187219;23;19997;-71
2023/07/01 01:06:20;;;;;;;9.55;6.20;;;23.30;59.20;;;;;;6162029;23;20470;-71
2023/07/01 01:09:01;;;;;;;7.68;5.50;;;23.30;59.20;;;;;;6186995;23;20309;-71
2023/07/01 01:11:30;;;;;;;8.07;6.45;;;23.30;59.20;;;;;;6160476;23;19997;-71
2023/07/01 01:13:59;;;;;;;10.25;7.30;;;23.30;59.20;;;;;;6186811;23;20087;-71
2023/07/01 01:16:26;;;;;;;7.05;6.22;;;23.30;59.20;;;;;;6186921;23;20021;-71
2023/07/01 01:18:53;;;;;;;8.77;5.60;;;23.30;59.20;;;;;;6186552;23;20000;-71
2023/07/01 01:21:27;;;;;;;7.43;5.68;;;23.30;59.10;;;;;;6161070;23;20317;-71
2023/07/01 01:23:59;;;;;;;6.82;5.22;;;23.30;59.20;;;;;;6186858;23;20055;-72
2023/07/01 01:26:28;;;;;;;8.70;5.90;;;23.30;59.10;;;;;;6187045;23;20000;-72
2023/07/01 01:28:55;;;;;;;8.60;6.68;;;23.30;59.20;;;;;;6187089;23;19993;-71
2023/07/01 01:31:21;;;;;;;9.30;6.25;;;23.30;59.20;;;;;;6160509;23;20004;-71
2023/07/01 01:33:50;;;;;;;9.38;6.22;;;23.30;59.10;;;;;;6187524;23;20001;-71
2023/07/01 01:36:29;;;;;;;9.48;6.10;;;23.30;59.10;;;;;;6187678;23;20023;-71
2023/07/01 01:39:05;;;;;;;8.98;5.93;;;23.30;59.10;;;;;;6186944;23;20004;-71
2023/07/01 01:41:58;;;;;;;11.45;6.65;;;23.30;59.10;;;;;;6187211;23;20001;-71
2023/07/01 01:44:47;;;;;;;8.70;6.63;;;23.30;59.10;;;;;;6156676;23;20044;-71
2023/07/01 01:47:22;;;;;;;8.15;6.47;;;23.30;59.70;;;;;;6160732;23;20000;-71
2023/07/01 01:49:53;;;;;;;11.55;6.60;;;23.30;59.10;;;;;;6161447;23;20410;-71
2023/07/01 01:52:23;;;;;;;7.78;6.05;;;23.30;59.00;;;;;;6160787;23;20087;-71
2023/07/01 01:54:53;;;;;;;11.15;5.50;;;23.40;59.10;;;;;;6160309;23;20607;-71
2023/07/01 01:57:20;;;;;;;7.72;5.43;;;23.30;59.10;;;;;;6187042;23;20064;-71
2023/07/01 01:59:46;;;;;;;10.52;6.43;;;23.30;59.20;;;;;;6186861;23;19993;-71
2023/07/01 02:02:12;;;;;;;9.48;6.25;;;23.40;59.20;;;;;;6186626;23;20036;-71
2023/07/01 02:04:38;;;;;;;17.75;6.13;;;23.40;59.20;;;;;;6186880;23;20291;-71
2023/07/01 02:07:04;;;;;;;8.32;5.57;;;23.30;59.20;;;;;;6160574;23;20096;-71
2023/07/01 02:09:30;;;;;;;8.68;6.45;;;23.30;59.20;;;;;;6186372;23;20016;-71
2023/07/01 02:12:01;;;;;;;9.05;6.80;;;23.40;59.20;;;;;;6186750;23;20001;-71
2023/07/01 02:14:27;;;;;;;10.45;6.28;;;23.30;59.20;;;;;;6160152;23;20004;-71
2023/07/01 02:16:55;;;;;;;9.07;7.20;;;23.40;59.20;;;;;;6160663;23;20083;-71
2023/07/01 02:19:21;;;;;;;7.30;5.90;;;23.30;59.30;;;;;;6186421;23;20007;-71
2023/07/01 02:21:52;;;;;;;7.47;5.68;;;23.40;59.40;;;;;;6186305;23;19993;-71
2023/07/01 02:24:18;;;;;;;7.70;5.85;;;23.30;59.50;;;;;;6186690;23;20345;-72
2023/07/01 02:26:45;;;;;;;7.68;5.78;;;23.30;59.40;;;;;;6186445;23;20026;-72
2023/07/01 02:29:11;;;;;;;8.20;6.28;;;23.30;59.50;;;;;;6159973;23;20000;-71
2023/07/01 02:31:36;;;;;;;10.27;6.30;;;23.30;59.60;;;;;;6186089;23;19989;-71
2023/07/01 02:34:02;;;;;;;8.15;6.28;;;23.30;59.60;;;;;;6186607;23;19997;-71
2023/07/01 02:36:29;;;;;;;9.38;6.20;;;23.30;59.70;;;;;;6186740;23;19989;-71
2023/07/01 02:39:00;;;;;;;6.13;5.15;;;23.30;59.70;;;;;;6186281;23;19997;-71
2023/07/01 02:41:26;;;;;;;7.55;5.38;;;23.30;59.70;;;;;;6160316;23;20109;-71
2023/07/01 02:43:51;;;;;;;7.38;5.70;;;23.30;59.70;;;;;;6186146;23;20001;-71
2023/07/01 02:46:17;;;;;;;7.20;5.80;;;23.20;59.70;;;;;;6186605;23;20043;-71
2023/07/01 02:48:43;;;;;;;7.88;5.60;;;23.20;59.80;;;;;;6186204;23;20473;-71
2023/07/01 02:51:17;;;;;;;6.53;5.75;;;23.20;59.80;;;;;;6159758;23;20037;-71
2023/07/01 02:53:42;;;;;;;10.57;6.15;;;23.30;59.90;;;;;;6185578;23;20084;-71
2023/07/01 02:56:14;;;;;;;8.73;5.45;;;23.20;59.80;;;;;;6185743;23;20052;-71
2023/07/01 02:58:39;;;;;;;8.75;6.38;;;23.20;60.00;;;;;;6161609;23;20001;-71
2023/07/01 03:01:05;;;;;;;10.52;6.30;;;23.30;60.00;;;;;;6186485;23;20015;-71
2023/07/01 03:03:31;;;;;;;7.55;6.57;;;23.30;60.00;;;;;;6185788;23;20001;-71
2023/07/01 03:06:00;;;;;;;8.45;7.05;;;23.30;60.00;;;;;;6159907;23;20315;-72
2023/07/01 03:08:25;;;;;;;10.30;7.15;;;23.20;59.90;;;;;;6160161;23;20274;-71
2023/07/01 03:10:56;;;;;;;8.93;7.10;;;23.20;60.40;;;;;;6185277;23;20000;-71
2023/07/01 03:13:25;;;;;;;8.93;7.32;;;23.20;60.30;;;;;;6186126;23;20036;-71
2023/07/01 03:15:50;;;;;;;10.13;7.20;;;23.20;60.30;;;;;;6159660;23;20067;-71
2023/07/01 03:18:19;;;;;;;10.02;7.32;;;23.20;60.60;;;;;;6160107;23;19997;-71
2023/07/01 03:20:45;;;;;;;12.73;7.35;;;23.10;60.50;;;;;;6185538;23;20057;-71
2023/07/01 03:23:13;;;;;;;11.82;8.40;;;23.20;60.50;;;;;;6159633;23;20005;-72
2023/07/01 03:25:39;;;;;;;10.77;7.55;;;23.10;60.90;;;;;;6185399;23;20004;-71
2023/07/01 03:28:10;;;;;;;9.05;6.88;;;23.10;60.60;;;;;;6186733;23;19997;-71
2023/07/01 03:30:38;;;;;;;8.35;6.55;;;23.10;60.80;;;;;;6186186;23;20000;-71
2023/07/01 03:33:06;;;;;;;8.93;6.75;;;23.10;60.70;;;;;;6184911;23;20051;-72
2023/07/01 03:35:32;;;;;;;8.30;7.07;;;23.20;60.70;;;;;;6159307;23;19997;-72
2023/07/01 03:37:57;;;;;;;10.52;7.05;;;23.10;60.60;;;;;;6159800;23;20342;-71
2023/07/01 03:40:23;;;;;;;8.25;6.70;;;23.10;60.60;;;;;;6158858;23;20317;-71
2023/07/01 03:42:49;;;;;;;8.38;7.28;;;23.20;60.60;;;;;;6185330;23;20299;-71
2023/07/01 03:45:14;;;;;;;10.95;6.95;;;23.20;60.70;;;;;;6185941;23;19993;-71
2023/07/01 03:47:43;;;;;;;10.27;7.13;;;23.20;60.60;;;;;;6159639;23;20012;-71
2023/07/01 03:50:09;;;;;;;11.18;9.02;;;23.20;60.70;;;;;;6185759;23;20025;-71
2023/07/01 03:52:41;;;;;;;10.70;8.05;;;23.20;61.00;;;;;;6184990;23;20113;-71
2023/07/01 03:55:11;;;;;;;9.52;7.60;;;23.20;60.80;;;;;;6158979;23;20001;-71
2023/07/01 03:57:37;;;;;;;8.80;6.07;;;23.20;60.60;;;;;;6159571;23;19993;-71
2023/07/01 04:00:08;;;;;;;10.63;6.93;;;23.20;60.70;;;;;;6185865;23;19998;-71
2023/07/01 04:02:37;;;;;;;7.45;6.50;;;23.20;60.70;;;;;;6185837;23;20056;-71
2023/07/01 04:05:10;;;;;;;7.50;5.57;;;23.20;60.70;;;;;;6160076;23;20369;-71
2023/07/01 04:07:43;;;;;;;9.55;6.25;;;23.20;60.90;;;;;;6186165;23;20016;-71
2023/07/01 04:10:10;;;;;;;10.48;7.32;;;23.30;60.90;;;;;;6185669;23;20432;-71
2023/07/01 04:12:41;;;;;;;8.48;5.97;;;23.30;60.90;;;;;;6158934;23;20009;-71
2023/07/01 04:15:10;;;;;;;11.65;7.07;;;23.30;60.70;;;;;;6159585;23;20406;-71
2023/07/01 04:17:44;;;;;;;8.93;5.80;;;23.30;60.70;;;;;;6159327;23;20033;-71
2023/07/01 04:20:11;;;;;;;9.75;6.50;;;23.30;60.60;;;;;;6185600;23;19997;-72
2023/07/01 04:22:37;;;;;;;8.02;6.28;;;23.40;60.70;;;;;;6185474;23;20068;-72
2023/07/01 04:25:04;;;;;;;10.93;6.68;;;23.40;60.70;;;;;;6185119;23;20000;-72
2023/07/01 04:27:30;;;;;;;10.30;6.28;;;23.40;60.60;;;;;;6159593;23;20001;-71
2023/07/01 04:29:56;;;;;;;8.45;6.00;;;23.40;60.60;;;;;;6185920;23;19997;-71
2023/07/01 04:32:24;;;;;;;11.15;7.00;;;23.50;60.50;;;;;;6184160;23;20005;-71
2023/07/01 04:34:50;;;;;;;11.05;6.45;;;23.50;60.50;;;;;;6185237;23;20036;-71
2023/07/01 04:37:16;;;;;;;8.18;6.68;;;23.50;60.30;;;;;;6185179;23;20083;-72
2023/07/01 04:39:42;;;;;;;10.88;6.63;;;23.50;60.40;;;;;;6159691;23;20313;-72
2023/07/01 04:42:10;;;;;;;11.90;7.13;;;23.50;60.50;;;;;;6162018;23;20372;-71
2023/07/01 04:44:38;;;;;;;10.38;7.63;;;23.50;60.50;;;;;;6186467;23;20024;-72
2023/07/01 04:47:04;;;;;;;10.70;7.32;;;23.60;60.50;;;;;;6187352;23;19989;-71
2023/07/01 04:49:30;;;;;;;10.35;7.22;;;23.60;61.10;;;;;;6161233;23;19997;-71
2023/07/01 04:52:01;;;;;;;8.18;6.38;;;23.60;60.20;;;;;;6160580;23;19997;-71
2023/07/01 04:54:32;;;;;;;13.98;7.25;;;23.70;60.20;;;;;;6186431;23;20477;-71
2023/07/01 04:56:58;;;;;;;14.82;8.05;;;23.70;60.10;;;;;;6187107;23;19993;-72
2023/07/01 04:59:23;;;;;;;12.57;8.27;;;23.70;60.10;;;;;;6187302;23;19993;-71
2023/07/01 05:01:51;;;;;;;8.30;7.25;;;23.80;60.20;;;;;;6187154;23;20071;-71
2023/07/01 05:04:17;;;;;;;8.68;6.65;;;23.80;60.20;;;;;;6186924;23;20048;-71
2023/07/01 05:06:45;;;;;;;10.80;7.88;;;23.90;60.10;;;;;;6186908;23;19997;-71
2023/07/01 05:09:11;;;;;;;10.00;7.47;;;23.90;60.00;;;;;;6187232;23;19997;-72
2023/07/01 05:11:37;;;;;;;16.15;8.10;;;23.90;59.80;;;;;;6161217;23;20287;-72
2023/07/01 05:14:04;;;;;;;13.00;7.47;;;24.00;59.80;;;;;;6187299;23;20005;-71
2023/07/01 05:16:31;;;;;;;9.95;7.40;;;24.00;59.60;;;;;;6187300;23;19989;-71
2023/07/01 05:19:02;;;;;;;8.32;6.88;;;24.10;59.70;;;;;;6160573;23;19994;-72
2023/07/01 05:21:31;;;;;;;8.40;7.50;;;24.10;59.70;;;;;;6160878;23;20001;-71
2023/07/01 05:23:57;;;;;;;9.80;7.38;;;24.20;59.70;;;;;;6186639;23;20048;-71
2023/07/01 05:26:23;;;;;;;8.68;7.13;;;24.30;59.60;;;;;;6187051;23;19989;-71
2023/07/01 05:28:50;;;;;;;8.80;6.78;;;24.30;59.50;;;;;;6161909;23;20005;-71
2023/07/01 05:31:16;;;;;;;8.75;6.55;;;24.40;59.40;;;;;;6187466;23;20059;-71
2023/07/01 05:33:46;;;;;;;9.25;6.55;;;24.50;59.30;;;;;;6186859;23;20032;-71
2023/07/01 05:36:17;;;;;;;16.20;7.47;;;24.60;59.20;;;;;;6187587;23;20056;-71
2023/07/01 05:38:43;;;;;;;8.38;6.57;;;24.60;59.00;;;;;;6160740;23;19997;-71
2023/07/01 05:41:08;;;;;;;9.02;6.90;;;24.70;58.80;;;;;;6186861;23;20032;-71
2023/07/01 05:43:34;;;;;;;8.10;7.13;;;24.80;58.80;;;;;;6186900;23;20063;-71
2023/07/01 05:46:06;;;;;;;9.27;7.65;;;24.90;58.50;;;;;;6187991;23;20013;-71
2023/07/01 05:48:32;;;;;;;11.85;8.40;;;25.00;58.10;;;;;;6186967;23;20056;-71
2023/07/01 05:51:03;;;;;;;9.70;7.80;;;25.10;58.00;;;;;;6186681;23;20020;-71
2023/07/01 05:53:29;;;;;;;10.32;7.93;;;25.10;57.80;;;;;;6186682;23;20001;-71
2023/07/01 05:55:54;;;;;;;9.75;8.23;;;25.20;57.60;;;;;;6186144;23;19997;-71
2023/07/01 05:58:20;;;;;;;12.13;8.23;;;25.30;57.40;;;;;;6186438;23;20000;-74
2023/07/01 06:00:50;;;;;;;10.77;7.65;;;25.30;57.30;;;;;;6160945;23;20004;-71
2023/07/01 06:03:15;;;;;;;10.50;8.02;;;25.30;57.20;;;;;;6187277;23;20001;-71
2023/07/01 06:05:46;;;;;;;14.68;9.55;;;25.30;57.10;;;;;;6186073;23;19992;-71
2023/07/01 06:08:18;;;;;;;16.55;9.23;;;25.30;57.00;;;;;;6160384;23;19997;-71
2023/07/01 06:10:43;;;;;;;13.95;9.15;;;25.30;57.00;;;;;;6186428;23;20313;-71
2023/07/01 06:13:09;;;;;;;13.60;9.32;;;25.30;57.00;;;;;;6160363;23;20041;-71
2023/07/01 06:15:38;;;;;;;13.38;9.95;;;25.30;56.90;;;;;;6186741;23;20025;-71
2023/07/01 06:18:03;;;;;;;12.93;9.48;;;25.40;56.90;;;;;;6160657;23;20433;-71
2023/07/01 06:20:29;;;;;;;14.32;9.35;;;25.40;56.80;;;;;;6186826;23;20005;-71
2023/07/01 06:22:55;;;;;;;13.80;9.13;;;25.40;56.80;;;;;;6186092;23;20072;-71
2023/07/01 06:25:23;;;;;;;13.25;9.85;;;25.40;56.60;;;;;;6186598;23;19993;-71
2023/07/01 06:27:49;;;;;;;13.70;10.48;;;25.50;56.30;;;;;;6160502;23;20008;-71
2023/07/01 06:30:14;;;;;;;15.90;9.95;;;25.50;56.20;;;;;;6160681;23;19997;-72
2023/07/01 06:32:44;;;;;;;12.82;9.70;;;25.50;56.20;;;;;;6186497;23;20024;-71
2023/07/01 06:35:15;;;;;;;12.55;8.68;;;25.50;56.00;;;;;;6159895;23;20009;-71
2023/07/01 06:37:41;;;;;;;12.23;9.50;;;25.50;56.00;;;;;;6186046;23;20004;-71
2023/07/01 06:40:07;;;;;;;16.00;10.70;;;25.50;55.90;;;;;;6186502;23;20001;-71
2023/07/01 06:42:40;;;;;;;16.50;9.60;;;25.50;55.70;;;;;;6160938;23;20027;-71
2023/07/01 06:45:06;;;;;;;21.38;10.45;;;25.50;55.60;;;;;;6160129;23;19993;-71
2023/07/01 06:47:32;;;;;;;13.93;9.20;;;25.50;55.40;;;;;;6186950;23;20043;-71
2023/07/01 06:49:57;;;;;;;14.35;9.38;;;25.40;55.50;;;;;;6185884;23;20020;-72
2023/07/01 06:52:23;;;;;;;12.95;9.07;;;25.40;55.70;;;;;;6186032;23;20409;-72
2023/07/01 06:54:49;;;;;;;18.17;9.68;;;25.30;55.80;;;;;;6160696;23;20005;-71
2023/07/01 06:57:14;;;;;;;12.77;9.18;;;25.30;55.90;;;;;;6185731;23;19997;-71
2023/07/01 06:59:40;;;;;;;12.75;8.93;;;25.20;56.10;;;;;;6186669;23;20039;-71
2023/07/01 07:02:09;;;;;;;14.32;9.60;;;25.20;56.20;;;;;;6159673;23;20009;-71
2023/07/01 07:04:35;;;;;;;15.35;10.63;;;25.20;56.30;;;;;;6159815;23;20017;-71
2023/07/01 07:07:00;;;;;;;12.07;9.00;;;25.10;56.40;;;;;;6186420;23;20047;-71
2023/07/01 07:09:31;;;;;;;12.65;9.40;;;25.00;56.40;;;;;;6163980;23;20004;-71
2023/07/01 07:11:57;;;;;;;14.48;10.77;;;25.00;56.60;;;;;;6185937;23;20414;-71
2023/07/01 07:14:24;;;;;;;12.90;8.98;;;25.00;56.80;;;;;;6185652;23;19997;-71
2023/07/01 07:16:50;;;;;;;12.93;9.20;;;24.90;56.80;;;;;;6186463;23;20029;-71
2023/07/01 07:19:16;;;;;;;11.63;9.00;;;24.90;56.90;;;;;;6159369;23;20127;-71
2023/07/01 07:21:44;;;;;;;11.65;8.90;;;24.90;57.10;;;;;;6159199;23;20001;-71
2023/07/01 07:24:13;;;;;;;11.38;8.73;;;24.90;57.10;;;;;;6159010;23;20084;-71
2023/07/01 07:26:47;;;;;;;11.82;8.32;;;24.90;57.20;;;;;;6158060;23;19997;-72
2023/07/01 07:29:17;;;;;;;12.57;9.45;;;24.90;57.20;;;;;;6185518;23;20063;-71
2023/07/01 07:32:04;;;;;;;19.15;9.82;;;24.90;57.10;;;;;;6186495;23;20479;-73
2023/07/01 07:34:30;;;;;;;14.25;10.65;;;24.90;57.30;;;;;;6185181;23;20425;-74
2023/07/01 07:37:21;;;;;;;18.58;13.07;;;24.90;57.30;;;;;;6184944;23;20008;-73
2023/07/01 07:39:59;;;;;;;19.60;12.93;;;24.90;57.40;;;;;;6185535;23;20021;-73
2023/07/01 07:42:28;;;;;;;14.52;12.20;;;24.90;57.50;;;;;;6159075;23;20366;-73
2023/07/01 07:45:20;;;;;;;20.33;14.00;;;24.90;57.70;;;;;;6186318;23;19993;-73
2023/07/01 07:47:47;;;;;;;17.90;13.30;;;24.90;57.70;;;;;;6158019;23;20075;-75
2023/07/01 07:50:45;;;;;;;18.77;14.10;;;25.00;57.70;;;;;;6186115;23;19997;-73
2023/07/01 07:53:16;;;;;;;17.35;13.38;;;25.10;57.70;;;;;;6172506;23;20008;-74
2023/07/01 07:55:58;;;;;;;22.45;13.75;;;25.20;57.80;;;;;;6186083;23;20003;-74
2023/07/01 07:58:45;;;;;;;22.23;13.73;;;25.30;57.50;;;;;;6159516;23;20008;-74
2023/07/01 08:01:29;;;;;;;17.83;13.65;;;25.50;57.40;;;;;;6187107;23;20006;-74
2023/07/01 08:04:18;;;;;;;19.70;14.98;;;25.70;57.20;;;;;;6186900;23;19997;-74
2023/07/01 08:07:01;;;;;;;20.45;14.48;;;25.90;56.90;;;;;;6137997;23;20305;-74
2023/07/01 08:09:52;;;;;;;20.75;15.13;;;26.00;56.50;;;;;;6185968;23;19993;-73
2023/07/01 08:12:23;;;;;;;22.02;15.02;;;26.30;56.30;;;;;;6185392;23;20072;-74
2023/07/01 08:15:21;;;;;;;22.37;14.87;;;26.50;55.80;;;;;;6186750;23;20009;-74
2023/07/01 08:18:28;;;;;;;25.73;14.98;;;26.70;55.60;;;;;;6161998;23;20005;-74
2023/07/01 08:21:20;;;;;;;21.88;15.85;;;26.90;55.20;;;;;;6185898;23;19997;-74
2023/07/01 08:24:12;;;;;;;27.75;16.92;;;27.20;54.80;;;;;;6180973;23;20001;-74
2023/07/01 08:27:02;;;;;;;26.73;16.80;;;27.30;54.20;;;;;;6187358;23;20413;-75
2023/07/01 08:29:31;;;;;;;22.25;17.63;;;27.50;54.00;;;;;;6161060;23;20420;-75
2023/07/01 08:31:59;;;;;;;31.80;18.85;;;27.60;53.20;;;;;;6162221;23;19999;-75
2023/07/01 08:34:24;;;;;;;23.92;17.75;;;27.70;52.90;;;;;;6161343;23;20076;-75
2023/07/01 08:36:53;;;;;;;29.50;17.33;;;27.80;52.80;;;;;;6190737;23;20435;-76
2023/07/01 08:39:24;;;;;;;26.77;17.83;;;27.90;52.40;;;;;;6162961;23;20005;-75
2023/07/01 08:41:59;;;;;;;29.88;17.40;;;27.90;52.30;;;;;;6187823;23;19989;-76
2023/07/01 08:44:25;;;;;;;25.00;17.77;;;28.00;51.70;;;;;;6188155;23;20067;-73
2023/07/01 08:46:55;;;;;;;24.52;17.50;;;28.10;51.00;;;;;;6161577;23;20313;-74
2023/07/01 08:49:24;;;;;;;26.40;17.40;;;28.10;50.70;;;;;;6187056;23;20059;-75
2023/07/01 08:52:08;;;;;;;20.98;14.98;;;28.00;50.10;;;;;;6161251;23;19997;-73
2023/07/01 08:54:34;;;;;;;19.52;14.88;;;27.90;49.80;;;;;;6186886;23;20084;-73
2023/07/01 08:57:01;;;;;;;19.00;14.20;;;27.90;49.40;;;;;;6186282;23;20398;-73
2023/07/01 08:59:32;;;;;;;19.23;14.43;;;27.80;49.70;;;;;;6186764;23;20293;-72
2023/07/01 09:02:01;;;;;;;17.40;13.38;;;27.60;48.80;;;;;;6160465;23;20005;-73
2023/07/01 09:04:41;;;;;;;18.67;13.25;;;27.50;49.10;;;;;;6187497;23;20068;-73
2023/07/01 09:07:29;;;;;;;17.42;13.43;;;27.40;48.90;;;;;;6160340;23;20048;-73
2023/07/01 09:10:25;;;;;;;17.25;12.70;;;27.20;48.30;;;;;;6160611;23;20299;-73
2023/07/01 09:12:59;;;;;;;18.55;12.68;;;27.10;48.90;;;;;;6160571;23;20001;-73
2023/07/01 09:15:57;;;;;;;19.60;12.63;;;27.10;49.00;;;;;;6187283;23;20022;-72
2023/07/01 09:18:26;;;;;;;17.30;11.75;;;27.00;49.30;;;;;;6160541;23;20084;-73
2023/07/01 09:20:53;;;;;;;13.52;11.00;;;27.00;48.90;;;;;;6160399;23;20004;-72
2023/07/01 09:23:29;;;;;;;16.98;11.45;;;26.90;49.00;;;;;;6160321;23;20009;-72
2023/07/01 09:26:08;;;;;;;13.85;10.73;;;26.90;48.80;;;;;;6159897;23;20020;-72
2023/07/01 09:28:35;;;;;;;15.02;10.45;;;26.90;47.80;;;;;;6160479;23;20000;-73
2023/07/01 09:31:11;;;;;;;13.73;9.57;;;26.90;47.50;;;;;;6186724;23;19993;-73
2023/07/01 09:33:40;;;;;;;17.25;9.65;;;26.80;47.20;;;;;;6160629;23;20029;-73
2023/07/01 09:36:24;;;;;;;13.30;8.98;;;26.80;47.00;;;;;;6160267;23;20005;-72
2023/07/01 09:39:10;;;;;;;;;;;26.70;47.60;;;;;;6161530;23;19997;-72
2023/07/01 09:41:39;;;;;;;11.95;7.60;;;26.70;48.50;;;;;;6185247;23;19979;-72
2023/07/01 09:44:19;;;;;;;15.52;7.38;;;26.60;45.70;;;;;;6186720;23;20072;-72
2023/07/01 09:46:50;;;;;;;10.38;7.07;;;26.50;45.40;;;;;;6186910;23;20031;-72
2023/07/01 09:49:42;;;;;;;9.25;5.85;;;26.50;45.20;;;;;;6186426;23;19993;-72
2023/07/01 09:52:14;;;;;;;9.73;5.70;;;26.40;44.80;;;;;;6160279;23;20001;-72
2023/07/01 09:54:42;;;;;;;6.95;5.50;;;26.30;43.90;;;;;;6186435;23;20008;-72
2023/07/01 09:57:10;;;;;;;8.07;5.40;;;26.30;44.80;;;;;;6160331;23;20287;-72
2023/07/01 09:59:36;;;;;;;7.38;5.13;;;26.20;43.30;;;;;;6187150;23;19996;-72
2023/07/01 10:02:07;;;;;;;10.20;5.45;;;26.20;43.70;;;;;;6187097;23;20001;-72
2023/07/01 10:04:35;;;;;;;7.25;4.78;;;26.10;43.00;;;;;;6186514;23;20031;-73
2023/07/01 10:07:03;;;;;;;7.40;4.75;;;26.00;42.80;;;;;;6186214;23;20000;-73
2023/07/01 10:09:44;;;;;;;14.10;5.20;;;26.10;42.80;;;;;;6186269;23;20001;-72
2023/07/01 10:12:11;;;;;;;8.60;5.20;;;26.10;42.90;;;;;;6186002;23;20051;-73
2023/07/01 10:14:38;;;;;;;7.93;4.20;;;26.10;42.20;;;;;;6186817;23;20003;-73
2023/07/01 10:17:10;;;;;;;8.88;4.15;;;26.20;42.70;;;;;;6160399;23;20001;-73
2023/07/01 10:19:46;;;;;;;6.72;3.88;;;26.20;41.80;;;;;;6185501;23;19993;-72
2023/07/01 10:22:31;;;;;;;8.98;4.90;;;26.20;42.10;;;;;;6160101;23;20028;-73
2023/07/01 10:25:05;;;;;;;5.22;3.90;;;26.30;43.10;;;;;;6186568;23;19999;-72
2023/07/01 10:27:40;;;;;;;5.63;3.80;;;26.40;42.40;;;;;;6161393;23;20060;-72
2023/07/01 10:30:09;;;;;;;6.35;4.22;;;26.50;42.60;;;;;;6159753;23;20001;-72
2023/07/01 10:32:39;;;;;;;5.72;4.18;;;26.60;42.60;;;;;;6186326;23;20076;-72
2023/07/01 10:35:13;;;;;;;6.05;4.20;;;26.70;41.50;;;;;;6186191;23;20004;-72
2023/07/01 10:37:39;;;;;;;4.68;3.25;;;26.70;41.40;;;;;;6160046;23;20305;-73
2023/07/01 10:40:23;;;;;;;7.13;3.97;;;26.80;41.60;;;;;;6186089;23;20008;-73
2023/07/01 10:43:14;;;;;;;;;;;26.90;41.30;;;;;;6187893;23;20011;-72
2023/07/01 10:45:42;;;;;;;10.02;4.45;;;27.00;42.80;;;;;;6185622;23;19900;-73
2023/07/01 10:48:14;;;;;;;7.93;4.32;;;27.10;40.30;;;;;;6185824;23;20009;-73
2023/07/01 10:51:05;;;;;;;7.25;4.40;;;27.20;40.70;;;;;;6185936;23;20313;-72
2023/07/01 10:53:59;;;;;;;5.47;4.25;;;27.30;41.50;;;;;;6159833;23;20005;-72
2023/07/01 10:56:31;;;;;;;6.20;4.73;;;27.30;41.10;;;;;;6167801;23;20001;-72
2023/07/01 10:59:20;;;;;;;6.13;4.25;;;27.40;40.40;;;;;;6186036;23;20000;-72
2023/07/01 11:02:00;;;;;;;7.05;4.35;;;27.50;40.80;;;;;;6185988;23;20115;-72
2023/07/01 11:04:54;;;;;;;6.88;4.43;;;27.60;40.20;;;;;;6186878;23;19997;-72
2023/07/01 11:07:27;;;;;;;;;;;27.70;40.30;;;;;;6160409;23;20394;-72
2023/07/01 11:09:54;;;;;;;6.07;4.22;;;27.70;41.60;;;;;;6185332;23;19903;-73
2023/07/01 11:12:33;;;;;;;6.32;3.78;;;27.80;39.60;;;;;;6185428;23;19997;-73
2023/07/01 11:15:02;;;;;;;6.20;3.95;;;27.80;39.90;;;;;;6159652;23;20011;-73
2023/07/01 11:17:30;;;;;;;10.27;4.65;;;27.90;39.20;;;;;;6159526;23;20047;-73
2023/07/01 11:19:57;;;;;;;5.75;3.67;;;27.90;38.40;;;;;;6185697;23;20000;-73
2023/07/01 11:22:35;;;;;;;10.35;4.00;;;27.90;38.80;;;;;;6186402;23;20001;-77
2023/07/01 11:25:06;;;;;;;6.55;3.60;;;27.90;38.00;;;;;;6186706;23;20353;-72
2023/07/01 11:28:00;;;;;;;6.82;4.75;;;27.90;38.30;;;;;;6159039;23;20425;-79
2023/07/01 11:30:32;;;;;;;6.15;4.22;;;27.90;39.10;;;;;;6186943;23;20004;-72
2023/07/01 11:33:16;;;;;;;9.02;6.10;;;27.90;38.20;;;;;;6186038;23;20457;-77
2023/07/01 11:35:55;;;;;;;5.85;4.20;;;28.00;39.00;;;;;;6186266;23;20004;-78
2023/07/01 11:38:26;;;;;;;5.97;4.13;;;28.10;39.00;;;;;;6160907;23;20392;-75
2023/07/01 11:44:26;;;;;;;6.72;3.90;;;28.40;39.10;;;;;;6184962;23;20139;-72
2023/07/01 11:47:16;;;;;;;8.30;3.50;;;28.60;39.20;;;;;;6186810;23;19997;-74
2023/07/01 11:50:07;;;;;;;7.38;4.38;;;28.90;38.90;;;;;;6161658;23;20064;-71
2023/07/01 11:52:39;;;;;;;6.60;4.63;;;29.00;37.20;;;;;;6090296;23;20080;-72
2023/07/01 11:55:34;;;;;;;7.20;3.90;;;29.20;37.50;;;;;;6187973;23;20028;-74
2023/07/01 11:58:02;;;;;;;5.43;3.65;;;29.50;37.40;;;;;;6163049;23;20009;-82
2023/07/01 12:00:30;;;;;;;5.13;3.80;;;29.60;36.00;;;;;;6162692;23;19997;-73
2023/07/01 12:03:02;;;;;;;8.15;3.50;;;29.70;35.50;;;;;;6161117;23;20001;-75
2023/07/01 12:08:20;;;;;;;4.78;3.33;;;29.90;35.70;;;;;;6171814;23;19996;-72
2023/07/01 12:10:46;;;;;;;10.38;4.32;;;30.10;35.40;;;;;;6161368;23;20024;-75
2023/07/01 12:13:31;;;;;;;8.13;4.15;;;30.20;34.10;;;;;;6187630;23;20001;-79
2023/07/01 12:16:01;;;;;;;6.82;3.42;;;30.30;35.30;;;;;;6187799;23;20267;-72
2023/07/01 12:18:28;;;;;;;5.82;4.05;;;30.50;34.80;;;;;;6162741;23;20425;-78
2023/07/01 12:20:57;;;;;;;5.53;3.35;;;30.50;34.20;;;;;;6187316;23;20075;-81
2023/07/01 12:23:23;;;;;;;6.95;3.67;;;30.70;34.00;;;;;;6162463;23;20055;-83
2023/07/01 12:26:50;;;;;;;4.13;3.03;;;30.70;33.30;;;;;;6188160;23;19997;-73
2023/07/01 12:32:25;;;;;;;5.75;3.63;;;30.70;33.80;;;;;;6188887;23;20027;-87
2023/07/01 12:34:52;;;;;;;4.97;3.47;;;30.70;33.40;;;;;;6162612;23;20001;-71
2023/07/01 12:40:34;;;;;;;4.88;3.40;;;30.70;33.40;;;;;;6187278;23;20005;-72
2023/07/01 12:43:42;;;;;;;6.93;3.38;;;30.60;33.50;;;;;;6188114;23;20001;-72
2023/07/01 12:46:13;;;;;;;4.07;3.40;;;30.60;33.30;;;;;;6160745;23;20034;-65
2023/07/01 12:48:51;;;;;;;6.97;3.50;;;30.60;33.20;;;;;;6187670;23;20309;-66
2023/07/01 12:51:27;;;;;;;5.18;4.03;;;30.70;32.90;;;;;;6187807;23;19996;-72
2023/07/01 12:53:57;;;;;;;5.60;3.45;;;30.70;33.40;;;;;;6187038;23;20001;-71
2023/07/01 12:56:25;;;;;;;13.98;3.53;;;30.90;32.60;;;;;;6161374;23;20008;-72
2023/07/01 12:58:57;;;;;;;5.25;3.47;;;31.00;32.50;;;;;;6186952;23;20000;-72
2023/07/01 13:01:31;;;;;;;6.32;3.67;;;31.20;32.30;;;;;;6160157;23;19997;-69
2023/07/01 13:04:00;;;;;;;5.10;2.72;;;31.30;31.80;;;;;;6187045;23;20146;-69
2023/07/01 13:06:31;;;;;;;5.90;3.30;;;31.40;31.70;;;;;;6187270;23;19993;-72
2023/07/01 13:09:07;;;;;;;3.92;3.05;;;31.60;31.60;;;;;;6186722;23;20074;-72
2023/07/01 13:11:58;;;;;;;5.03;2.70;;;31.60;30.70;;;;;;6187184;23;20051;-70
2023/07/01 13:14:32;;;;;;;4.40;3.13;;;31.70;31.60;;;;;;6187204;23;20028;-69
2023/07/01 13:17:03;;;;;;;4.60;3.17;;;31.70;30.80;;;;;;6160893;23;19993;-71